createdAt,value
2018-11-01T00:01:06.582Z,5.67
2018-11-01T00:04:12.435Z,6.07
2018-11-01T00:07:17.883Z,5.40
2018-11-01T00:10:24.944Z,5.23
2018-11-01T00:13:30.491Z,5.40
2018-11-01T00:16:38.194Z,5.00
2018-11-01T00:19:43.229Z,4.90
2018-11-01T00:22:48.697Z,5.27
2018-11-01T00:25:54.071Z,4.80
2018-11-01T00:29:01.037Z,4.93
2018-11-01T00:32:06.552Z,4.07
2018-11-01T00:35:12.434Z,5.00
2018-11-01T00:38:17.961Z,5.17
2018-11-01T00:41:23.260Z,4.80
2018-11-01T00:44:30.286Z,5.10
2018-11-01T00:47:35.715Z,4.90
2018-11-01T00:50:41.105Z,4.30
2018-11-01T00:53:48.464Z,4.73
2018-11-01T00:56:53.425Z,4.57
2018-11-01T00:59:58.880Z,4.47
2018-11-01T01:03:05.627Z,4.60
2018-11-01T01:06:11.003Z,4.63
2018-11-01T01:09:16.601Z,4.63
2018-11-01T01:12:22.180Z,5.13
2018-11-01T01:15:29.163Z,4.63
2018-11-01T01:18:34.177Z,4.70
2018-11-01T01:21:39.472Z,3.97
2018-11-01T01:24:46.451Z,4.23
2018-11-01T01:27:51.752Z,4.47
2018-11-01T01:30:57.039Z,4.40
2018-11-01T01:34:02.446Z,4.23
2018-11-01T01:37:08.778Z,4.43
2018-11-01T01:40:13.993Z,4.10
2018-11-01T01:43:23.812Z,4.67
2018-11-01T01:46:29.498Z,4.07
2018-11-01T01:49:35.291Z,4.27
2018-11-01T01:52:41.074Z,4.10
2018-11-01T01:55:46.559Z,4.77
2018-11-01T01:58:52.081Z,4.20
2018-11-01T02:01:57.448Z,4.10
2018-11-01T02:05:03.002Z,4.37
2018-11-01T02:08:09.286Z,4.20
2018-11-01T02:11:14.778Z,4.00
2018-11-01T02:14:20.397Z,3.80
2018-11-01T02:17:25.708Z,4.27
2018-11-01T02:20:30.624Z,4.17
2018-11-01T02:23:47.698Z,4.07
2018-11-01T02:26:54.834Z,4.10
2018-11-01T02:30:11.831Z,4.50
2018-11-01T02:33:21.358Z,4.10
2018-11-01T02:36:47.303Z,3.93
2018-11-01T02:40:03.279Z,3.30
2018-11-01T02:46:23.100Z,4.07
2018-11-01T02:49:28.180Z,4.27
2018-11-01T02:52:35.904Z,3.77
2018-11-01T02:55:45.605Z,4.10
2018-11-01T02:58:58.477Z,3.90
2018-11-01T03:02:03.057Z,4.07
2018-11-01T03:05:08.457Z,3.70
2018-11-01T03:08:17.927Z,4.53
2018-11-01T03:11:23.727Z,4.40
2018-11-01T03:14:28.549Z,4.40
2018-11-01T03:17:33.817Z,4.27
2018-11-01T03:20:38.825Z,4.47
2018-11-01T03:23:44.254Z,4.60
2018-11-01T03:26:50.340Z,4.07
2018-11-01T03:29:55.866Z,4.57
2018-11-01T03:33:01.004Z,4.43
2018-11-01T03:36:06.099Z,4.40
2018-11-01T03:39:12.811Z,3.83
2018-11-01T03:42:17.874Z,4.13
2018-11-01T03:45:23.585Z,3.90
2018-11-01T03:48:28.882Z,3.97
2018-11-01T03:51:34.098Z,4.10
2018-11-01T03:54:39.382Z,4.10
2018-11-01T03:57:44.478Z,3.83
2018-11-01T04:00:51.063Z,4.13
2018-11-01T04:03:56.977Z,4.83
2018-11-01T04:07:02.673Z,4.30
2018-11-01T04:10:08.689Z,4.17
2018-11-01T04:13:14.865Z,4.20
2018-11-01T04:16:19.383Z,3.97
2018-11-01T04:19:24.461Z,4.20
2018-11-01T04:22:31.147Z,3.90
2018-11-01T04:25:36.538Z,3.90
2018-11-01T04:28:41.546Z,3.57
2018-11-01T04:31:48.925Z,4.13
2018-11-01T04:34:57.953Z,3.87
2018-11-01T04:38:03.502Z,4.20
2018-11-01T04:41:08.959Z,4.13
2018-11-01T04:44:14.419Z,3.90
2018-11-01T04:47:19.913Z,4.10
2018-11-01T04:50:25.101Z,4.07
2018-11-01T04:53:30.632Z,3.60
2018-11-01T04:56:35.259Z,3.83
2018-11-01T04:59:40.321Z,3.67
2018-11-01T05:02:45.591Z,3.93
2018-11-01T05:05:50.726Z,3.93
2018-11-01T05:08:55.646Z,3.97
2018-11-01T05:12:00.477Z,4.10
2018-11-01T05:15:06.652Z,4.03
2018-11-01T05:18:13.117Z,4.53
2018-11-01T05:21:25.849Z,3.97
2018-11-01T05:24:30.110Z,4.10
2018-11-01T05:27:35.614Z,4.07
2018-11-01T05:30:40.695Z,4.33
2018-11-01T05:33:45.892Z,4.37
2018-11-01T05:36:51.136Z,3.67
2018-11-01T05:39:56.270Z,3.77
2018-11-01T05:43:01.478Z,4.33
2018-11-01T05:46:06.528Z,4.50
2018-11-01T05:49:11.837Z,4.10
2018-11-01T05:52:16.910Z,4.20
2018-11-01T05:55:22.073Z,4.40
2018-11-01T05:58:27.204Z,4.67
2018-11-01T06:01:36.108Z,4.43
2018-11-01T06:04:40.554Z,4.10
2018-11-01T06:07:53.578Z,4.37
2018-11-01T06:10:58.102Z,4.23
2018-11-01T06:14:03.010Z,4.70
2018-11-01T06:17:09.038Z,4.60
2018-11-01T06:20:15.204Z,4.27
2018-11-01T06:23:20.163Z,5.13
2018-11-01T06:26:26.507Z,4.50
2018-11-01T06:29:37.113Z,4.57
2018-11-01T06:32:46.901Z,4.17
2018-11-01T06:35:53.607Z,3.60
2018-11-01T06:39:00.424Z,4.40
2018-11-01T06:42:08.499Z,4.13
2018-11-01T06:45:13.047Z,4.00
2018-11-01T06:48:19.319Z,3.73
2018-11-01T06:51:24.715Z,3.57
2018-11-01T06:54:29.235Z,4.13
2018-11-01T06:57:34.448Z,3.77
2018-11-01T07:00:39.047Z,4.07
2018-11-01T07:03:44.140Z,4.20
2018-11-01T07:06:48.892Z,4.20
2018-11-01T07:09:55.051Z,4.20
2018-11-01T07:13:00.580Z,4.17
2018-11-01T07:16:06.534Z,4.10
2018-11-01T07:19:11.712Z,3.90
2018-11-01T07:22:16.955Z,4.00
2018-11-01T07:25:22.358Z,3.70
2018-11-01T07:28:27.199Z,4.07
2018-11-01T07:31:31.949Z,3.70
2018-11-01T07:34:42.231Z,4.00
2018-11-01T07:37:47.683Z,3.40
2018-11-01T07:40:52.537Z,3.50
2018-11-01T07:43:57.039Z,3.23
2018-11-01T07:47:01.844Z,3.23
2018-11-01T07:50:08.556Z,3.37
2018-11-01T07:53:14.297Z,3.87
2018-11-01T07:56:19.913Z,3.30
2018-11-01T07:59:27.194Z,3.57
2018-11-01T08:02:32.362Z,3.77
2018-11-01T08:05:38.999Z,3.47
2018-11-01T08:08:44.367Z,3.50
2018-11-01T08:11:49.836Z,3.43
2018-11-01T08:14:56.224Z,3.50
2018-11-01T08:18:01.280Z,3.30
2018-11-01T08:21:06.761Z,3.47
2018-11-01T08:24:14.853Z,3.33
2018-11-01T08:27:21.132Z,3.60
2018-11-01T08:30:26.295Z,4.07
2018-11-01T08:33:31.729Z,3.20
2018-11-01T08:36:36.864Z,3.90
2018-11-01T08:39:41.734Z,3.70
2018-11-01T08:42:46.348Z,3.80
2018-11-01T08:45:51.635Z,3.90
2018-11-01T08:48:55.988Z,4.07
2018-11-01T08:52:00.380Z,3.93
2018-11-01T08:55:04.957Z,3.70
2018-11-01T08:58:09.253Z,3.80
2018-11-01T09:01:14.079Z,4.00
2018-11-01T09:04:18.951Z,4.23
2018-11-01T09:07:23.722Z,4.20
2018-11-01T09:10:28.769Z,4.30
2018-11-01T09:13:33.080Z,4.30
2018-11-01T09:16:38.183Z,4.00
2018-11-01T09:19:43.540Z,4.30
2018-11-01T09:22:48.074Z,3.77
2018-11-01T09:25:52.824Z,4.50
2018-11-01T09:28:57.450Z,4.27
2018-11-01T09:32:09.598Z,4.37
2018-11-01T09:35:14.201Z,4.40
2018-11-01T09:38:19.984Z,4.90
2018-11-01T09:41:25.015Z,4.53
2018-11-01T09:44:29.878Z,4.27
2018-11-01T09:47:35.838Z,4.70
2018-11-01T09:50:41.446Z,4.40
2018-11-01T09:53:46.466Z,4.80
2018-11-01T09:56:51.536Z,4.50
2018-11-01T09:59:56.510Z,4.57
2018-11-01T10:03:01.234Z,4.67
2018-11-01T10:06:06.282Z,5.53
2018-11-01T10:09:11.139Z,4.57
2018-11-01T10:12:16.440Z,5.43
2018-11-01T10:15:22.734Z,5.23
2018-11-01T10:18:27.370Z,5.17
2018-11-01T10:21:31.325Z,6.27
2018-11-01T10:24:38.257Z,5.90
2018-11-01T10:27:47.704Z,5.77
2018-11-01T10:31:01.053Z,6.60
2018-11-01T10:34:05.957Z,6.87
2018-11-01T10:37:10.300Z,6.73
2018-11-01T10:40:17.871Z,7.03
2018-11-01T10:43:24.518Z,6.73
2018-11-01T10:46:29.637Z,6.73
2018-11-01T10:49:41.218Z,6.90
2018-11-01T10:52:45.617Z,7.43
2018-11-01T10:55:50.013Z,6.90
2018-11-01T10:58:54.474Z,6.87
2018-11-01T11:02:05.357Z,6.93
2018-11-01T11:08:23.096Z,7.17
2018-11-01T11:11:31.040Z,8.27
2018-11-01T11:14:37.295Z,7.17
2018-11-01T11:17:42.807Z,6.60
2018-11-01T11:20:47.380Z,6.50
2018-11-01T11:23:52.301Z,7.13
2018-11-01T11:26:56.679Z,6.50
2018-11-01T11:30:01.970Z,6.60
2018-11-01T11:33:06.522Z,6.80
2018-11-01T11:36:11.227Z,6.40
2018-11-01T11:39:17.266Z,7.27
2018-11-01T11:42:24.621Z,8.20
2018-11-01T11:45:29.201Z,8.90
2018-11-01T11:48:33.813Z,8.17
2018-11-01T11:51:38.371Z,9.57
2018-11-01T11:54:43.185Z,10.10
2018-11-01T11:57:49.155Z,10.80
2018-11-01T12:00:54.818Z,10.93
2018-11-01T12:07:16.060Z,11.10
2018-11-01T12:10:20.664Z,11.50
2018-11-01T12:13:32.371Z,12.73
2018-11-01T12:16:38.610Z,12.20
2018-11-01T12:19:43.581Z,13.30
2018-11-01T12:22:48.290Z,12.47
2018-11-01T12:25:53.860Z,13.13
2018-11-01T12:28:59.379Z,13.03
2018-11-01T12:32:04.812Z,12.97
2018-11-01T12:35:10.144Z,13.20
2018-11-01T12:38:14.860Z,13.43
2018-11-01T12:41:19.776Z,14.33
2018-11-01T12:44:25.644Z,13.43
2018-11-01T12:47:30.636Z,14.37
2018-11-01T12:50:35.937Z,14.17
2018-11-01T12:53:41.372Z,12.60
2018-11-01T12:56:46.270Z,13.20
2018-11-01T12:59:51.557Z,13.53
2018-11-01T13:02:55.912Z,14.17
2018-11-01T13:06:00.196Z,13.87
2018-11-01T13:09:07.856Z,13.17
2018-11-01T13:12:13.883Z,14.50
2018-11-01T13:15:18.691Z,14.57
2018-11-01T13:18:23.083Z,13.43
2018-11-01T13:21:29.084Z,14.23
2018-11-01T13:24:34.016Z,13.80
2018-11-01T13:27:38.895Z,14.57
2018-11-01T13:30:43.170Z,15.60
2018-11-01T13:33:47.705Z,14.37
2018-11-01T13:36:53.052Z,14.33
2018-11-01T13:39:59.218Z,13.63
2018-11-01T13:43:04.365Z,14.07
2018-11-01T13:46:08.909Z,15.50
2018-11-01T13:49:13.706Z,14.47
2018-11-01T13:52:20.091Z,14.83
2018-11-01T13:55:24.966Z,15.33
2018-11-01T13:58:29.357Z,15.93
2018-11-01T14:01:33.849Z,16.00
2018-11-01T14:04:38.386Z,16.50
2018-11-01T14:07:45.584Z,16.47
2018-11-01T14:10:50.681Z,17.20
2018-11-01T14:13:55.770Z,15.93
2018-11-01T14:17:00.906Z,16.67
2018-11-01T14:20:06.500Z,16.87
2018-11-01T14:23:11.250Z,17.10
2018-11-01T14:26:16.284Z,17.30
2018-11-01T14:29:21.280Z,18.20
2018-11-01T14:32:27.571Z,15.57
2018-11-01T14:35:32.381Z,18.33
2018-11-01T14:38:37.134Z,17.70
2018-11-01T14:41:41.999Z,16.93
2018-11-01T14:44:46.727Z,18.30
2018-11-01T14:47:51.517Z,16.40
2018-11-01T14:50:55.937Z,17.43
2018-11-01T14:54:01.577Z,18.67
2018-11-01T14:57:05.967Z,17.53
2018-11-01T15:00:10.670Z,16.87
2018-11-01T15:03:15.605Z,16.10
2018-11-01T15:06:20.959Z,16.03
2018-11-01T15:09:25.299Z,17.00
2018-11-01T15:12:29.869Z,16.30
2018-11-01T15:15:35.260Z,16.23
2018-11-01T15:18:42.197Z,16.07
2018-11-01T15:21:47.858Z,16.60
2018-11-01T15:24:53.353Z,16.77
2018-11-01T15:27:58.393Z,16.60
2018-11-01T15:31:03.334Z,17.10
2018-11-01T15:34:08.397Z,17.13
2018-11-01T15:37:13.413Z,18.03
2018-11-01T15:40:18.627Z,17.17
2018-11-01T15:43:23.029Z,16.00
2018-11-01T15:46:27.823Z,16.13
2018-11-01T15:49:32.847Z,16.53
2018-11-01T15:52:37.971Z,16.83
2018-11-01T15:55:43.333Z,16.20
2018-11-01T15:58:50.010Z,15.53
2018-11-01T16:01:55.290Z,15.47
2018-11-01T16:05:00.988Z,15.07
2018-11-01T16:08:11.171Z,16.53
2018-11-01T16:11:15.891Z,17.03
2018-11-01T16:14:21.555Z,16.80
2018-11-01T16:17:29.092Z,16.73
2018-11-01T16:20:35.597Z,16.83
2018-11-01T16:23:40.738Z,16.83
2018-11-01T16:26:46.666Z,15.90
2018-11-01T16:29:51.191Z,17.07
2018-11-01T16:32:55.905Z,16.30
2018-11-01T16:36:00.242Z,17.23
2018-11-01T16:39:08.269Z,17.37
2018-11-01T16:42:13.213Z,17.60
2018-11-01T16:45:18.028Z,18.10
2018-11-01T16:48:23.615Z,17.83
2018-11-01T16:51:28.908Z,19.30
2018-11-01T16:54:33.951Z,19.00
2018-11-01T16:57:39.243Z,22.80
2018-11-01T17:00:45.415Z,24.43
2018-11-01T17:03:50.997Z,26.20
2018-11-01T17:06:55.921Z,26.30
2018-11-01T17:10:01.446Z,27.83
2018-11-01T17:13:05.867Z,26.83
2018-11-01T17:16:10.455Z,27.47
2018-11-01T17:19:17.489Z,28.80
2018-11-01T17:22:23.444Z,29.50
2018-11-01T17:25:28.370Z,29.43
2018-11-01T17:28:33.414Z,30.17
2018-11-01T17:31:38.085Z,29.20
2018-11-01T17:34:43.710Z,30.10
2018-11-01T17:37:48.377Z,29.67
2018-11-01T17:40:53.315Z,29.60
2018-11-01T17:43:57.946Z,30.33
2018-11-01T17:47:04.253Z,30.37
2018-11-01T17:50:11.347Z,29.27
2018-11-01T17:53:15.859Z,30.50
2018-11-01T17:56:20.153Z,29.47
2018-11-01T17:59:24.571Z,31.00
2018-11-01T18:02:29.066Z,29.73
2018-11-01T18:05:33.550Z,29.73
2018-11-01T18:08:39.041Z,30.67
2018-11-01T18:11:43.769Z,30.10
2018-11-01T18:14:49.661Z,30.33
2018-11-01T18:17:55.285Z,29.40
2018-11-01T18:20:59.615Z,30.13
2018-11-01T18:24:04.562Z,29.57
2018-11-01T18:27:10.100Z,30.60
2018-11-01T18:30:15.864Z,28.50
2018-11-01T18:33:20.264Z,28.43
2018-11-01T18:36:25.167Z,29.50
2018-11-01T18:39:31.560Z,29.67
2018-11-01T18:42:36.826Z,28.50
2018-11-01T18:45:42.061Z,28.70
2018-11-01T18:48:46.749Z,28.97
2018-11-01T18:51:54.518Z,28.37
2018-11-01T18:55:01.157Z,30.60
2018-11-01T18:58:06.126Z,28.90
2018-11-01T19:01:11.109Z,28.90
2018-11-01T19:04:16.443Z,30.43
2018-11-01T19:07:22.584Z,31.73
2018-11-01T19:10:28.978Z,30.27
2018-11-01T19:13:35.252Z,30.57
2018-11-01T19:16:40.088Z,31.90
2018-11-01T19:19:44.964Z,31.30
2018-11-01T19:22:51.507Z,32.10
2018-11-01T19:25:56.438Z,32.77
2018-11-01T19:29:02.566Z,31.67
2018-11-01T19:32:08.344Z,31.87
2018-11-01T19:35:13.667Z,30.33
2018-11-01T19:38:18.601Z,31.00
2018-11-01T19:41:23.758Z,31.97
2018-11-01T19:44:28.725Z,31.87
2018-11-01T19:47:34.047Z,32.50
2018-11-01T19:50:38.800Z,31.70
2018-11-01T19:53:44.970Z,34.47
2018-11-01T19:56:49.872Z,32.63
2018-11-01T19:59:54.735Z,33.47
2018-11-01T20:02:59.926Z,33.63
2018-11-01T20:06:05.002Z,34.07
2018-11-01T20:09:10.496Z,32.43
2018-11-01T20:12:15.760Z,33.40
2018-11-01T20:15:20.900Z,32.37
2018-11-01T20:18:25.464Z,33.43
2018-11-01T20:21:30.473Z,33.37
2018-11-01T20:24:35.775Z,34.23
2018-11-01T20:27:41.163Z,35.60
2018-11-01T20:30:45.993Z,34.30
2018-11-01T20:33:50.651Z,34.33
2018-11-01T20:36:55.576Z,33.20
2018-11-01T20:40:01.419Z,33.77
2018-11-01T20:43:05.808Z,35.57
2018-11-01T20:46:11.796Z,35.33
2018-11-01T20:49:16.266Z,35.93
2018-11-01T20:52:21.000Z,36.13
2018-11-01T20:55:26.218Z,36.13
2018-11-01T20:58:30.921Z,36.40
2018-11-01T21:01:36.960Z,35.97
2018-11-01T21:04:41.918Z,36.07
2018-11-01T21:07:47.056Z,36.70
2018-11-01T21:10:52.281Z,35.43
2018-11-01T21:13:57.526Z,36.03
2018-11-01T21:17:03.162Z,37.60
2018-11-01T21:20:08.849Z,36.57
2018-11-01T21:23:14.188Z,37.13
2018-11-01T21:26:20.611Z,35.67
2018-11-01T21:29:27.113Z,36.73
2018-11-01T21:32:34.519Z,36.90
2018-11-01T21:35:39.594Z,35.77
2018-11-01T21:38:45.107Z,33.93
2018-11-01T21:41:50.483Z,35.30
2018-11-01T21:44:55.487Z,37.03
2018-11-01T21:48:00.647Z,34.17
2018-11-01T21:51:06.448Z,34.07
2018-11-01T21:54:11.983Z,34.07
2018-11-01T21:57:17.163Z,34.40
2018-11-01T22:00:22.516Z,32.57
2018-11-01T22:03:27.803Z,33.60
2018-11-01T22:06:33.242Z,33.93
2018-11-01T22:09:38.759Z,34.00
2018-11-01T22:12:44.345Z,32.57
2018-11-01T22:15:49.387Z,32.83
2018-11-01T22:18:54.940Z,30.97
2018-11-01T22:22:00.999Z,31.70
2018-11-01T22:25:09.167Z,31.40
2018-11-01T22:28:14.910Z,31.07
2018-11-01T22:31:19.110Z,29.50
2018-11-01T22:34:23.733Z,30.47
2018-11-01T22:37:28.561Z,29.37
2018-11-01T22:40:33.829Z,29.77
2018-11-01T22:43:38.992Z,30.33
2018-11-01T22:46:43.367Z,28.10
2018-11-01T22:49:52.380Z,30.40
2018-11-01T22:52:57.270Z,28.60
2018-11-01T22:56:02.412Z,30.40
2018-11-01T22:59:07.648Z,30.17
2018-11-01T23:02:12.962Z,30.63
2018-11-01T23:05:18.240Z,29.53
2018-11-01T23:08:23.452Z,27.70
2018-11-01T23:11:28.524Z,29.93
2018-11-01T23:14:33.476Z,26.90
2018-11-01T23:17:39.898Z,30.33
2018-11-01T23:20:45.345Z,29.73
2018-11-01T23:23:50.384Z,28.43
2018-11-01T23:26:56.197Z,29.13
2018-11-01T23:30:02.209Z,28.43
2018-11-01T23:33:08.795Z,28.50
2018-11-01T23:36:12.746Z,27.63
2018-11-01T23:39:23.178Z,27.03
2018-11-01T23:42:33.628Z,27.93
2018-11-01T23:45:44.701Z,26.77
2018-11-01T23:48:52.818Z,27.33
2018-11-01T23:52:02.469Z,26.93
2018-11-01T23:55:07.601Z,26.70
2018-11-01T23:58:12.759Z,26.93
